sensor_id;sensor_type;location;lat;lon;timestamp;P1;durP1;ratioP1;P2;durP2;ratioP2
7383;SDS011;3733;47.994;8.820;2022-09-21T00:01:49;4.73;;;3.90;;
7383;SDS011;3733;47.994;8.820;2022-09-21T00:04:15;5.30;;;3.80;;
7383;SDS011;3733;47.994;8.820;2022-09-21T00:06:40;7.60;;;3.53;;
7383;SDS011;3733;47.994;8.820;2022-09-21T00:09:06;6.80;;;3.67;;
7383;SDS011;3733;47.994;8.820;2022-09-21T00:11:33;5.70;;;4.30;;
7383;SDS011;3733;47.994;8.820;2022-09-21T00:14:02;12.10;;;4.13;;
7383;SDS011;3733;47.994;8.820;2022-09-21T00:16:31;5.40;;;3.77;;
7383;SDS011;3733;47.994;8.820;2022-09-21T00:18:57;7.03;;;4.30;;
7383;SDS011;3733;47.994;8.820;2022-09-21T00:21:23;5.97;;;3.83;;
7383;SDS011;3733;47.994;8.820;2022-09-21T00:23:48;5.13;;;3.70;;
7383;SDS011;3733;47.994;8.820;2022-09-21T00:26:16;5.00;;;3.57;;
7383;SDS011;3733;47.994;8.820;2022-09-21T00:28:46;12.53;;;3.43;;
7383;SDS011;3733;47.994;8.820;2022-09-21T00:31:18;10.13;;;3.27;;
7383;SDS011;3733;47.994;8.820;2022-09-21T00:33:44;2.97;;;2.77;;
7383;SDS011;3733;47.994;8.820;2022-09-21T00:36:14;7.80;;;3.50;;
7383;SDS011;3733;47.994;8.820;2022-09-21T00:38:43;3.73;;;3.20;;
7383;SDS011;3733;47.994;8.820;2022-09-21T00:41:10;10.47;;;3.83;;
7383;SDS011;3733;47.994;8.820;2022-09-21T00:43:39;6.50;;;3.40;;
7383;SDS011;3733;47.994;8.820;2022-09-21T00:46:13;7.53;;;3.80;;
7383;SDS011;3733;47.994;8.820;2022-09-21T00:48:42;13.00;;;3.60;;
7383;SDS011;3733;47.994;8.820;2022-09-21T00:51:10;5.50;;;3.30;;
7383;SDS011;3733;47.994;8.820;2022-09-21T00:53:37;7.07;;;3.30;;
7383;SDS011;3733;47.994;8.820;2022-09-21T00:56:03;5.63;;;3.40;;
7383;SDS011;3733;47.994;8.820;2022-09-21T00:58:32;9.37;;;4.00;;
7383;SDS011;3733;47.994;8.820;2022-09-21T01:01:03;4.70;;;3.27;;
7383;SDS011;3733;47.994;8.820;2022-09-21T01:03:29;5.77;;;3.40;;
7383;SDS011;3733;47.994;8.820;2022-09-21T01:05:56;6.60;;;3.57;;
7383;SDS011;3733;47.994;8.820;2022-09-21T01:08:22;3.73;;;3.07;;
7383;SDS011;3733;47.994;8.820;2022-09-21T01:29:51;5.60;;;3.47;;
7383;SDS011;3733;47.994;8.820;2022-09-21T01:34:54;5.90;;;3.60;;
7383;SDS011;3733;47.994;8.820;2022-09-21T01:37:38;5.00;;;3.37;;
7383;SDS011;3733;47.994;8.820;2022-09-21T01:40:27;5.00;;;3.63;;
7383;SDS011;3733;47.994;8.820;2022-09-21T01:43:01;6.03;;;3.17;;
7383;SDS011;3733;47.994;8.820;2022-09-21T01:45:30;8.80;;;4.23;;
7383;SDS011;3733;47.994;8.820;2022-09-21T01:47:59;4.93;;;3.33;;
7383;SDS011;3733;47.994;8.820;2022-09-21T01:50:26;8.10;;;3.60;;
7383;SDS011;3733;47.994;8.820;2022-09-21T01:52:58;5.27;;;3.50;;
7383;SDS011;3733;47.994;8.820;2022-09-21T01:55:47;5.50;;;3.67;;
7383;SDS011;3733;47.994;8.820;2022-09-21T01:58:25;5.63;;;3.73;;
7383;SDS011;3733;47.994;8.820;2022-09-21T02:00:57;6.33;;;4.20;;
7383;SDS011;3733;47.994;8.820;2022-09-21T02:03:31;4.93;;;3.43;;
7383;SDS011;3733;47.994;8.820;2022-09-21T02:06:03;5.20;;;3.53;;
7383;SDS011;3733;47.994;8.820;2022-09-21T02:08:31;5.57;;;3.43;;
7383;SDS011;3733;47.994;8.820;2022-09-21T02:10:58;7.13;;;3.57;;
7383;SDS011;3733;47.994;8.820;2022-09-21T02:13:25;5.03;;;3.57;;
7383;SDS011;3733;47.994;8.820;2022-09-21T02:27:06;6.70;;;3.60;;
7383;SDS011;3733;47.994;8.820;2022-09-21T02:43:49;6.20;;;3.40;;
7383;SDS011;3733;47.994;8.820;2022-09-21T02:51:45;9.30;;;3.40;;
7383;SDS011;3733;47.994;8.820;2022-09-21T02:54:15;6.40;;;3.27;;
7383;SDS011;3733;47.994;8.820;2022-09-21T02:56:45;4.40;;;3.50;;
7383;SDS011;3733;47.994;8.820;2022-09-21T02:59:13;5.07;;;4.07;;
7383;SDS011;3733;47.994;8.820;2022-09-21T03:01:40;5.47;;;3.60;;
7383;SDS011;3733;47.994;8.820;2022-09-21T03:04:06;6.57;;;3.60;;
7383;SDS011;3733;47.994;8.820;2022-09-21T03:06:33;4.57;;;3.60;;
7383;SDS011;3733;47.994;8.820;2022-09-21T03:08:58;6.80;;;3.57;;
7383;SDS011;3733;47.994;8.820;2022-09-21T03:11:24;6.40;;;3.60;;
7383;SDS011;3733;47.994;8.820;2022-09-21T03:13:50;4.37;;;3.60;;
7383;SDS011;3733;47.994;8.820;2022-09-21T03:16:16;5.10;;;3.67;;
7383;SDS011;3733;47.994;8.820;2022-09-21T03:18:42;5.70;;;3.50;;
7383;SDS011;3733;47.994;8.820;2022-09-21T03:21:11;15.37;;;3.50;;
7383;SDS011;3733;47.994;8.820;2022-09-21T03:23:38;5.60;;;3.73;;
7383;SDS011;3733;47.994;8.820;2022-09-21T03:26:04;7.53;;;3.67;;
7383;SDS011;3733;47.994;8.820;2022-09-21T03:28:30;5.03;;;3.97;;
7383;SDS011;3733;47.994;8.820;2022-09-21T03:30:55;4.57;;;3.77;;
7383;SDS011;3733;47.994;8.820;2022-09-21T03:33:21;3.90;;;3.50;;
7383;SDS011;3733;47.994;8.820;2022-09-21T03:35:49;4.87;;;3.40;;
7383;SDS011;3733;47.994;8.820;2022-09-21T03:38:16;5.23;;;3.57;;
7383;SDS011;3733;47.994;8.820;2022-09-21T03:40:45;6.97;;;3.90;;
7383;SDS011;3733;47.994;8.820;2022-09-21T03:43:12;8.40;;;3.77;;
7383;SDS011;3733;47.994;8.820;2022-09-21T03:45:38;6.23;;;3.73;;
7383;SDS011;3733;47.994;8.820;2022-09-21T03:48:06;5.57;;;4.10;;
7383;SDS011;3733;47.994;8.820;2022-09-21T03:50:32;6.93;;;3.97;;
7383;SDS011;3733;47.994;8.820;2022-09-21T03:52:58;3.77;;;3.33;;
7383;SDS011;3733;47.994;8.820;2022-09-21T03:55:24;7.67;;;3.73;;
7383;SDS011;3733;47.994;8.820;2022-09-21T03:57:50;6.33;;;4.40;;
7383;SDS011;3733;47.994;8.820;2022-09-21T04:00:16;3.73;;;3.20;;
7383;SDS011;3733;47.994;8.820;2022-09-21T04:02:42;7.70;;;3.60;;
7383;SDS011;3733;47.994;8.820;2022-09-21T04:05:08;9.83;;;4.30;;
7383;SDS011;3733;47.994;8.820;2022-09-21T04:07:36;8.97;;;3.70;;
7383;SDS011;3733;47.994;8.820;2022-09-21T04:10:02;6.53;;;3.50;;
7383;SDS011;3733;47.994;8.820;2022-09-21T04:12:30;5.80;;;3.60;;
7383;SDS011;3733;47.994;8.820;2022-09-21T04:15:00;6.97;;;4.17;;
7383;SDS011;3733;47.994;8.820;2022-09-21T04:17:26;8.50;;;4.53;;
7383;SDS011;3733;47.994;8.820;2022-09-21T04:19:52;5.80;;;3.93;;
7383;SDS011;3733;47.994;8.820;2022-09-21T04:22:18;7.70;;;4.07;;
7383;SDS011;3733;47.994;8.820;2022-09-21T04:24:43;6.90;;;3.63;;
7383;SDS011;3733;47.994;8.820;2022-09-21T04:27:09;8.80;;;4.10;;
7383;SDS011;3733;47.994;8.820;2022-09-21T04:29:36;4.67;;;3.77;;
7383;SDS011;3733;47.994;8.820;2022-09-21T04:32:03;3.80;;;3.37;;
7383;SDS011;3733;47.994;8.820;2022-09-21T04:34:29;6.33;;;4.10;;
7383;SDS011;3733;47.994;8.820;2022-09-21T04:36:58;4.03;;;3.30;;
7383;SDS011;3733;47.994;8.820;2022-09-21T04:39:24;8.90;;;4.00;;
7383;SDS011;3733;47.994;8.820;2022-09-21T04:41:50;6.03;;;4.00;;
7383;SDS011;3733;47.994;8.820;2022-09-21T04:44:16;6.10;;;3.63;;
7383;SDS011;3733;47.994;8.820;2022-09-21T04:46:45;8.00;;;3.27;;
7383;SDS011;3733;47.994;8.820;2022-09-21T04:49:10;6.00;;;3.67;;
7383;SDS011;3733;47.994;8.820;2022-09-21T04:51:36;7.13;;;4.13;;
7383;SDS011;3733;47.994;8.820;2022-09-21T04:54:02;5.10;;;4.47;;
7383;SDS011;3733;47.994;8.820;2022-09-21T04:56:28;11.53;;;4.87;;
7383;SDS011;3733;47.994;8.820;2022-09-21T04:58:54;8.97;;;4.50;;
7383;SDS011;3733;47.994;8.820;2022-09-21T05:01:20;7.40;;;4.57;;
7383;SDS011;3733;47.994;8.820;2022-09-21T05:03:46;11.83;;;3.30;;
7383;SDS011;3733;47.994;8.820;2022-09-21T05:06:11;5.53;;;4.27;;
7383;SDS011;3733;47.994;8.820;2022-09-21T05:08:37;8.60;;;3.90;;
7383;SDS011;3733;47.994;8.820;2022-09-21T05:11:21;7.07;;;4.07;;
7383;SDS011;3733;47.994;8.820;2022-09-21T05:13:48;6.87;;;4.60;;
7383;SDS011;3733;47.994;8.820;2022-09-21T05:16:14;5.87;;;4.40;;
7383;SDS011;3733;47.994;8.820;2022-09-21T05:18:41;7.67;;;4.20;;
7383;SDS011;3733;47.994;8.820;2022-09-21T05:21:06;11.30;;;4.23;;
7383;SDS011;3733;47.994;8.820;2022-09-21T05:23:34;8.97;;;5.00;;
7383;SDS011;3733;47.994;8.820;2022-09-21T05:26:00;5.40;;;3.90;;
7383;SDS011;3733;47.994;8.820;2022-09-21T05:28:26;7.37;;;4.20;;
7383;SDS011;3733;47.994;8.820;2022-09-21T05:31:03;8.50;;;4.67;;
7383;SDS011;3733;47.994;8.820;2022-09-21T05:33:36;7.63;;;4.37;;
7383;SDS011;3733;47.994;8.820;2022-09-21T05:38:53;4.53;;;3.63;;
7383;SDS011;3733;47.994;8.820;2022-09-21T05:41:19;11.00;;;4.13;;
7383;SDS011;3733;47.994;8.820;2022-09-21T05:43:45;6.93;;;3.90;;
7383;SDS011;3733;47.994;8.820;2022-09-21T05:46:13;5.40;;;4.00;;
7383;SDS011;3733;47.994;8.820;2022-09-21T05:48:58;7.00;;;4.70;;
7383;SDS011;3733;47.994;8.820;2022-09-21T06:05:21;13.77;;;5.17;;
7383;SDS011;3733;47.994;8.820;2022-09-21T06:07:47;7.70;;;5.07;;
7383;SDS011;3733;47.994;8.820;2022-09-21T06:10:13;8.00;;;4.90;;
7383;SDS011;3733;47.994;8.820;2022-09-21T06:12:40;9.30;;;5.17;;
7383;SDS011;3733;47.994;8.820;2022-09-21T06:15:06;6.80;;;5.20;;
7383;SDS011;3733;47.994;8.820;2022-09-21T06:17:35;8.53;;;4.90;;
7383;SDS011;3733;47.994;8.820;2022-09-21T06:20:00;9.37;;;5.43;;
7383;SDS011;3733;47.994;8.820;2022-09-21T06:22:27;7.70;;;5.10;;
7383;SDS011;3733;47.994;8.820;2022-09-21T06:24:53;9.07;;;5.50;;
7383;SDS011;3733;47.994;8.820;2022-09-21T06:27:18;8.50;;;5.50;;
7383;SDS011;3733;47.994;8.820;2022-09-21T06:29:44;6.20;;;4.57;;
7383;SDS011;3733;47.994;8.820;2022-09-21T06:32:10;8.53;;;4.47;;
7383;SDS011;3733;47.994;8.820;2022-09-21T06:34:35;5.87;;;4.40;;
7383;SDS011;3733;47.994;8.820;2022-09-21T06:37:02;6.60;;;4.20;;
7383;SDS011;3733;47.994;8.820;2022-09-21T06:39:27;6.70;;;4.37;;
7383;SDS011;3733;47.994;8.820;2022-09-21T06:41:53;4.13;;;3.73;;
7383;SDS011;3733;47.994;8.820;2022-09-21T06:44:19;4.93;;;3.73;;
7383;SDS011;3733;47.994;8.820;2022-09-21T06:46:45;4.53;;;3.93;;
7383;SDS011;3733;47.994;8.820;2022-09-21T06:49:10;4.80;;;4.10;;
7383;SDS011;3733;47.994;8.820;2022-09-21T06:51:36;8.53;;;4.13;;
7383;SDS011;3733;47.994;8.820;2022-09-21T06:54:02;6.90;;;4.13;;
7383;SDS011;3733;47.994;8.820;2022-09-21T06:56:27;5.70;;;4.20;;
7383;SDS011;3733;47.994;8.820;2022-09-21T06:58:53;7.80;;;3.97;;
7383;SDS011;3733;47.994;8.820;2022-09-21T07:01:19;9.20;;;4.23;;
7383;SDS011;3733;47.994;8.820;2022-09-21T07:03:47;6.53;;;4.30;;
7383;SDS011;3733;47.994;8.820;2022-09-21T07:06:15;11.60;;;5.13;;
7383;SDS011;3733;47.994;8.820;2022-09-21T07:08:41;9.23;;;5.20;;
7383;SDS011;3733;47.994;8.820;2022-09-21T07:11:08;7.03;;;4.40;;
7383;SDS011;3733;47.994;8.820;2022-09-21T07:13:34;7.17;;;4.77;;
7383;SDS011;3733;47.994;8.820;2022-09-21T07:16:04;8.60;;;5.17;;
7383;SDS011;3733;47.994;8.820;2022-09-21T07:18:31;7.20;;;4.37;;
7383;SDS011;3733;47.994;8.820;2022-09-21T07:21:00;7.10;;;4.83;;
7383;SDS011;3733;47.994;8.820;2022-09-21T07:23:30;9.10;;;4.60;;
7383;SDS011;3733;47.994;8.820;2022-09-21T07:25:59;6.43;;;3.90;;
7383;SDS011;3733;47.994;8.820;2022-09-21T07:28:30;8.93;;;3.47;;
7383;SDS011;3733;47.994;8.820;2022-09-21T07:30:56;6.53;;;3.80;;
7383;SDS011;3733;47.994;8.820;2022-09-21T07:33:23;5.07;;;3.63;;
7383;SDS011;3733;47.994;8.820;2022-09-21T07:35:50;3.97;;;2.87;;
7383;SDS011;3733;47.994;8.820;2022-09-21T07:38:22;5.03;;;3.07;;
7383;SDS011;3733;47.994;8.820;2022-09-21T07:40:48;4.20;;;3.20;;
7383;SDS011;3733;47.994;8.820;2022-09-21T07:43:14;6.80;;;2.80;;
7383;SDS011;3733;47.994;8.820;2022-09-21T07:45:40;5.87;;;3.33;;
7383;SDS011;3733;47.994;8.820;2022-09-21T07:48:06;7.33;;;2.67;;
7383;SDS011;3733;47.994;8.820;2022-09-21T07:50:35;3.80;;;2.80;;
7383;SDS011;3733;47.994;8.820;2022-09-21T07:53:02;4.30;;;3.00;;
7383;SDS011;3733;47.994;8.820;2022-09-21T07:55:28;6.80;;;3.13;;
7383;SDS011;3733;47.994;8.820;2022-09-21T07:57:54;5.47;;;3.07;;
7383;SDS011;3733;47.994;8.820;2022-09-21T08:00:39;5.63;;;2.80;;
7383;SDS011;3733;47.994;8.820;2022-09-21T08:03:04;7.30;;;3.93;;
7383;SDS011;3733;47.994;8.820;2022-09-21T08:05:31;4.90;;;3.80;;
7383;SDS011;3733;47.994;8.820;2022-09-21T08:07:57;4.60;;;2.80;;
7383;SDS011;3733;47.994;8.820;2022-09-21T08:10:23;10.50;;;3.00;;
7383;SDS011;3733;47.994;8.820;2022-09-21T08:12:52;5.07;;;2.93;;
7383;SDS011;3733;47.994;8.820;2022-09-21T08:15:18;4.23;;;2.43;;
7383;SDS011;3733;47.994;8.820;2022-09-21T08:17:43;6.27;;;2.47;;
7383;SDS011;3733;47.994;8.820;2022-09-21T08:20:09;5.37;;;2.63;;
7383;SDS011;3733;47.994;8.820;2022-09-21T08:22:34;2.83;;;2.10;;
7383;SDS011;3733;47.994;8.820;2022-09-21T08:25:00;7.57;;;2.70;;
7383;SDS011;3733;47.994;8.820;2022-09-21T08:27:27;5.50;;;3.20;;
7383;SDS011;3733;47.994;8.820;2022-09-21T08:29:52;4.20;;;2.03;;
7383;SDS011;3733;47.994;8.820;2022-09-21T08:32:18;2.37;;;2.10;;
7383;SDS011;3733;47.994;8.820;2022-09-21T08:34:44;3.87;;;2.40;;
7383;SDS011;3733;47.994;8.820;2022-09-21T08:37:09;10.00;;;2.63;;
7383;SDS011;3733;47.994;8.820;2022-09-21T08:39:35;2.90;;;1.80;;
7383;SDS011;3733;47.994;8.820;2022-09-21T08:44:52;6.13;;;2.10;;
7383;SDS011;3733;47.994;8.820;2022-09-21T08:47:27;6.30;;;2.03;;
7383;SDS011;3733;47.994;8.820;2022-09-21T08:49:57;4.63;;;1.80;;
7383;SDS011;3733;47.994;8.820;2022-09-21T08:52:25;7.93;;;1.90;;
7383;SDS011;3733;47.994;8.820;2022-09-21T08:54:55;4.40;;;2.00;;
7383;SDS011;3733;47.994;8.820;2022-09-21T08:57:29;3.63;;;2.23;;
7383;SDS011;3733;47.994;8.820;2022-09-21T08:59:56;3.73;;;1.73;;
7383;SDS011;3733;47.994;8.820;2022-09-21T09:19:46;7.13;;;1.90;;
7383;SDS011;3733;47.994;8.820;2022-09-21T09:22:19;3.83;;;1.97;;
7383;SDS011;3733;47.994;8.820;2022-09-21T09:24:50;5.77;;;1.90;;
7383;SDS011;3733;47.994;8.820;2022-09-21T09:33:09;3.73;;;1.70;;
7383;SDS011;3733;47.994;8.820;2022-09-21T09:38:23;3.67;;;2.00;;
7383;SDS011;3733;47.994;8.820;2022-09-21T09:51:39;6.53;;;1.50;;
7383;SDS011;3733;47.994;8.820;2022-09-21T09:54:11;2.33;;;1.50;;
7383;SDS011;3733;47.994;8.820;2022-09-21T09:56:39;3.13;;;1.60;;
7383;SDS011;3733;47.994;8.820;2022-09-21T09:59:08;4.13;;;1.73;;
7383;SDS011;3733;47.994;8.820;2022-09-21T10:01:58;2.63;;;1.73;;
7383;SDS011;3733;47.994;8.820;2022-09-21T10:04:28;6.53;;;1.57;;
7383;SDS011;3733;47.994;8.820;2022-09-21T10:06:54;6.10;;;1.80;;
7383;SDS011;3733;47.994;8.820;2022-09-21T10:09:25;4.13;;;1.77;;
7383;SDS011;3733;47.994;8.820;2022-09-21T10:11:57;2.60;;;1.77;;
7383;SDS011;3733;47.994;8.820;2022-09-21T10:14:26;4.13;;;1.97;;
7383;SDS011;3733;47.994;8.820;2022-09-21T10:16:55;14.07;;;5.60;;
7383;SDS011;3733;47.994;8.820;2022-09-21T10:19:28;8.40;;;3.00;;
7383;SDS011;3733;47.994;8.820;2022-09-21T10:21:55;7.13;;;1.80;;
7383;SDS011;3733;47.994;8.820;2022-09-21T10:24:36;3.50;;;1.97;;
7383;SDS011;3733;47.994;8.820;2022-09-21T10:29:41;6.10;;;1.80;;
7383;SDS011;3733;47.994;8.820;2022-09-21T10:37:26;2.93;;;1.50;;
7383;SDS011;3733;47.994;8.820;2022-09-21T10:39:54;2.53;;;1.30;;
7383;SDS011;3733;47.994;8.820;2022-09-21T10:42:21;2.63;;;1.80;;
7383;SDS011;3733;47.994;8.820;2022-09-21T10:45:03;4.33;;;1.30;;
7383;SDS011;3733;47.994;8.820;2022-09-21T10:47:41;3.30;;;1.60;;
7383;SDS011;3733;47.994;8.820;2022-09-21T10:50:22;6.60;;;1.50;;
7383;SDS011;3733;47.994;8.820;2022-09-21T10:52:50;2.80;;;1.50;;
7383;SDS011;3733;47.994;8.820;2022-09-21T10:55:21;2.77;;;1.57;;
7383;SDS011;3733;47.994;8.820;2022-09-21T10:57:48;7.80;;;1.40;;
7383;SDS011;3733;47.994;8.820;2022-09-21T11:02:50;2.50;;;1.57;;
7383;SDS011;3733;47.994;8.820;2022-09-21T11:05:19;2.23;;;1.60;;
7383;SDS011;3733;47.994;8.820;2022-09-21T11:07:47;2.20;;;1.50;;
7383;SDS011;3733;47.994;8.820;2022-09-21T11:10:23;2.77;;;1.23;;
7383;SDS011;3733;47.994;8.820;2022-09-21T11:13:08;2.77;;;1.30;;
7383;SDS011;3733;47.994;8.820;2022-09-21T11:21:02;1.30;;;1.20;;
7383;SDS011;3733;47.994;8.820;2022-09-21T11:23:45;2.10;;;1.90;;
7383;SDS011;3733;47.994;8.820;2022-09-21T11:26:35;3.30;;;1.13;;
7383;SDS011;3733;47.994;8.820;2022-09-21T11:41:02;3.00;;;1.30;;
7383;SDS011;3733;47.994;8.820;2022-09-21T11:43:36;3.23;;;1.60;;
7383;SDS011;3733;47.994;8.820;2022-09-21T12:04:54;1.43;;;1.07;;
7383;SDS011;3733;47.994;8.820;2022-09-21T12:07:43;1.17;;;1.07;;
7383;SDS011;3733;47.994;8.820;2022-09-21T12:13:21;6.33;;;1.67;;
7383;SDS011;3733;47.994;8.820;2022-09-21T12:16:05;1.87;;;1.40;;
7383;SDS011;3733;47.994;8.820;2022-09-21T12:18:54;2.00;;;1.47;;
7383;SDS011;3733;47.994;8.820;2022-09-21T12:21:25;1.00;;;0.90;;
7383;SDS011;3733;47.994;8.820;2022-09-21T12:24:02;2.43;;;1.20;;
7383;SDS011;3733;47.994;8.820;2022-09-21T12:26:50;5.23;;;1.30;;
7383;SDS011;3733;47.994;8.820;2022-09-21T12:29:30;1.93;;;1.27;;
7383;SDS011;3733;47.994;8.820;2022-09-21T12:32:12;1.00;;;0.90;;
7383;SDS011;3733;47.994;8.820;2022-09-21T12:34:45;4.23;;;0.93;;
7383;SDS011;3733;47.994;8.820;2022-09-21T12:37:17;2.40;;;1.20;;
7383;SDS011;3733;47.994;8.820;2022-09-21T12:42:32;1.83;;;1.00;;
7383;SDS011;3733;47.994;8.820;2022-09-21T12:45:05;1.60;;;1.00;;
7383;SDS011;3733;47.994;8.820;2022-09-21T12:53:16;1.43;;;1.10;;
7383;SDS011;3733;47.994;8.820;2022-09-21T12:59:12;4.20;;;1.30;;
7383;SDS011;3733;47.994;8.820;2022-09-21T13:09:42;2.97;;;1.07;;
7383;SDS011;3733;47.994;8.820;2022-09-21T13:14:44;5.67;;;1.40;;
7383;SDS011;3733;47.994;8.820;2022-09-21T13:17:19;4.83;;;1.13;;
7383;SDS011;3733;47.994;8.820;2022-09-21T13:19:56;1.47;;;1.00;;
7383;SDS011;3733;47.994;8.820;2022-09-21T13:22:35;4.33;;;0.90;;
7383;SDS011;3733;47.994;8.820;2022-09-21T13:30:40;1.50;;;0.90;;
7383;SDS011;3733;47.994;8.820;2022-09-21T13:40:59;1.07;;;0.97;;
7383;SDS011;3733;47.994;8.820;2022-09-21T13:49:00;2.10;;;1.20;;
7383;SDS011;3733;47.994;8.820;2022-09-21T13:54:22;1.17;;;1.10;;
7383;SDS011;3733;47.994;8.820;2022-09-21T13:59:28;2.83;;;1.10;;
7383;SDS011;3733;47.994;8.820;2022-09-21T14:01:56;1.77;;;1.00;;
7383;SDS011;3733;47.994;8.820;2022-09-21T14:04:29;1.50;;;1.13;;
7383;SDS011;3733;47.994;8.820;2022-09-21T14:07:01;1.37;;;1.10;;
7383;SDS011;3733;47.994;8.820;2022-09-21T14:12:05;1.67;;;0.97;;
7383;SDS011;3733;47.994;8.820;2022-09-21T14:14:41;2.30;;;1.00;;
7383;SDS011;3733;47.994;8.820;2022-09-21T14:19:59;1.70;;;1.27;;
7383;SDS011;3733;47.994;8.820;2022-09-21T14:25:46;1.37;;;1.00;;
7383;SDS011;3733;47.994;8.820;2022-09-21T14:27:49;1.20;;;0.83;;
7383;SDS011;3733;47.994;8.820;2022-09-21T14:35:36;3.37;;;0.93;;
7383;SDS011;3733;47.994;8.820;2022-09-21T14:38:04;2.80;;;1.20;;
7383;SDS011;3733;47.994;8.820;2022-09-21T14:40:39;3.80;;;0.97;;
7383;SDS011;3733;47.994;8.820;2022-09-21T14:43:14;2.40;;;1.03;;
7383;SDS011;3733;47.994;8.820;2022-09-21T14:54:30;1.17;;;1.07;;
7383;SDS011;3733;47.994;8.820;2022-09-21T14:57:34;1.53;;;1.30;;
7383;SDS011;3733;47.994;8.820;2022-09-21T15:00:42;6.93;;;1.00;;
7383;SDS011;3733;47.994;8.820;2022-09-21T15:06:32;2.90;;;1.10;;
7383;SDS011;3733;47.994;8.820;2022-09-21T15:12:21;1.87;;;1.17;;
7383;SDS011;3733;47.994;8.820;2022-09-21T15:14:55;3.90;;;2.37;;
7383;SDS011;3733;47.994;8.820;2022-09-21T15:17:29;3.30;;;1.40;;
7383;SDS011;3733;47.994;8.820;2022-09-21T15:19:58;1.13;;;0.80;;
7383;SDS011;3733;47.994;8.820;2022-09-21T15:22:25;1.17;;;0.90;;
7383;SDS011;3733;47.994;8.820;2022-09-21T15:25:01;6.10;;;1.30;;
7383;SDS011;3733;47.994;8.820;2022-09-21T15:27:28;5.60;;;1.07;;
7383;SDS011;3733;47.994;8.820;2022-09-21T15:29:57;1.00;;;1.00;;
7383;SDS011;3733;47.994;8.820;2022-09-21T15:32:35;1.33;;;1.20;;
7383;SDS011;3733;47.994;8.820;2022-09-21T15:35:04;3.07;;;1.10;;
7383;SDS011;3733;47.994;8.820;2022-09-21T15:37:34;1.53;;;1.20;;
7383;SDS011;3733;47.994;8.820;2022-09-21T15:40:01;1.97;;;1.40;;
7383;SDS011;3733;47.994;8.820;2022-09-21T15:42:29;6.50;;;1.30;;
7383;SDS011;3733;47.994;8.820;2022-09-21T15:45:14;2.93;;;1.30;;
7383;SDS011;3733;47.994;8.820;2022-09-21T15:47:42;4.77;;;1.30;;
7383;SDS011;3733;47.994;8.820;2022-09-21T15:50:15;1.70;;;1.20;;
7383;SDS011;3733;47.994;8.820;2022-09-21T15:52:47;4.90;;;1.80;;
7383;SDS011;3733;47.994;8.820;2022-09-21T15:55:19;2.93;;;1.40;;
7383;SDS011;3733;47.994;8.820;2022-09-21T15:57:46;1.97;;;1.50;;
7383;SDS011;3733;47.994;8.820;2022-09-21T16:02:40;1.53;;;1.30;;
7383;SDS011;3733;47.994;8.820;2022-09-21T16:05:13;2.13;;;1.43;;
7383;SDS011;3733;47.994;8.820;2022-09-21T16:07:39;3.63;;;1.87;;
7383;SDS011;3733;47.994;8.820;2022-09-21T16:13:04;1.40;;;1.30;;
7383;SDS011;3733;47.994;8.820;2022-09-21T16:18:30;1.30;;;1.10;;
7383;SDS011;3733;47.994;8.820;2022-09-21T16:21:07;1.40;;;1.30;;
7383;SDS011;3733;47.994;8.820;2022-09-21T16:23:54;4.23;;;1.70;;
7383;SDS011;3733;47.994;8.820;2022-09-21T16:26:33;1.63;;;1.43;;
7383;SDS011;3733;47.994;8.820;2022-09-21T16:31:32;1.97;;;1.50;;
7383;SDS011;3733;47.994;8.820;2022-09-21T16:36:43;1.57;;;1.47;;
7383;SDS011;3733;47.994;8.820;2022-09-21T16:39:11;1.47;;;1.30;;
7383;SDS011;3733;47.994;8.820;2022-09-21T16:41:38;1.83;;;1.53;;
7383;SDS011;3733;47.994;8.820;2022-09-21T16:44:11;1.90;;;1.60;;
7383;SDS011;3733;47.994;8.820;2022-09-21T16:46:50;4.00;;;1.83;;
7383;SDS011;3733;47.994;8.820;2022-09-21T16:49:22;2.70;;;2.30;;
7383;SDS011;3733;47.994;8.820;2022-09-21T16:51:50;3.33;;;1.73;;
7383;SDS011;3733;47.994;8.820;2022-09-21T16:54:17;2.13;;;1.50;;
7383;SDS011;3733;47.994;8.820;2022-09-21T16:56:48;2.10;;;1.40;;
7383;SDS011;3733;47.994;8.820;2022-09-21T16:59:15;1.93;;;1.60;;
7383;SDS011;3733;47.994;8.820;2022-09-21T17:01:50;8.80;;;1.77;;
7383;SDS011;3733;47.994;8.820;2022-09-21T17:04:19;5.63;;;1.97;;
7383;SDS011;3733;47.994;8.820;2022-09-21T17:06:47;3.67;;;1.60;;
7383;SDS011;3733;47.994;8.820;2022-09-21T17:09:18;3.70;;;1.73;;
7383;SDS011;3733;47.994;8.820;2022-09-21T17:11:47;1.60;;;1.50;;
7383;SDS011;3733;47.994;8.820;2022-09-21T17:14:15;2.07;;;1.57;;
7383;SDS011;3733;47.994;8.820;2022-09-21T17:16:43;1.93;;;1.70;;
7383;SDS011;3733;47.994;8.820;2022-09-21T17:19:12;5.23;;;2.30;;
7383;SDS011;3733;47.994;8.820;2022-09-21T17:21:38;6.27;;;2.30;;
7383;SDS011;3733;47.994;8.820;2022-09-21T17:24:03;2.33;;;1.70;;
7383;SDS011;3733;47.994;8.820;2022-09-21T17:26:30;1.90;;;1.40;;
7383;SDS011;3733;47.994;8.820;2022-09-21T17:28:57;4.27;;;1.83;;
7383;SDS011;3733;47.994;8.820;2022-09-21T17:31:23;2.80;;;2.10;;
7383;SDS011;3733;47.994;8.820;2022-09-21T17:33:49;2.17;;;1.80;;
7383;SDS011;3733;47.994;8.820;2022-09-21T17:36:16;2.30;;;2.10;;
7383;SDS011;3733;47.994;8.820;2022-09-21T17:38:42;3.30;;;1.83;;
7383;SDS011;3733;47.994;8.820;2022-09-21T17:41:26;2.50;;;1.83;;
7383;SDS011;3733;47.994;8.820;2022-09-21T17:46:56;3.07;;;1.90;;
7383;SDS011;3733;47.994;8.820;2022-09-21T17:49:29;6.73;;;1.83;;
7383;SDS011;3733;47.994;8.820;2022-09-21T17:51:55;2.50;;;2.27;;
7383;SDS011;3733;47.994;8.820;2022-09-21T17:54:39;6.87;;;2.87;;
7383;SDS011;3733;47.994;8.820;2022-09-21T17:57:18;3.43;;;2.30;;
7383;SDS011;3733;47.994;8.820;2022-09-21T18:00:16;2.03;;;1.93;;
7383;SDS011;3733;47.994;8.820;2022-09-21T18:02:56;4.80;;;2.83;;
7383;SDS011;3733;47.994;8.820;2022-09-21T18:05:26;6.53;;;4.80;;
7383;SDS011;3733;47.994;8.820;2022-09-21T18:07:53;10.83;;;6.00;;
7383;SDS011;3733;47.994;8.820;2022-09-21T18:10:20;10.03;;;6.63;;
7383;SDS011;3733;47.994;8.820;2022-09-21T18:13:03;6.47;;;5.30;;
7383;SDS011;3733;47.994;8.820;2022-09-21T18:18:17;5.70;;;4.33;;
7383;SDS011;3733;47.994;8.820;2022-09-21T18:26:18;5.90;;;4.23;;
7383;SDS011;3733;47.994;8.820;2022-09-21T18:28:45;7.37;;;4.60;;
7383;SDS011;3733;47.994;8.820;2022-09-21T18:36:31;7.33;;;5.00;;
7383;SDS011;3733;47.994;8.820;2022-09-21T18:50:40;6.17;;;4.30;;
7383;SDS011;3733;47.994;8.820;2022-09-21T18:56:20;7.07;;;4.60;;
7383;SDS011;3733;47.994;8.820;2022-09-21T18:58:47;4.30;;;3.53;;
7383;SDS011;3733;47.994;8.820;2022-09-21T19:01:14;11.90;;;5.53;;
7383;SDS011;3733;47.994;8.820;2022-09-21T19:03:41;14.27;;;7.93;;
7383;SDS011;3733;47.994;8.820;2022-09-21T19:16:58;9.20;;;5.30;;
7383;SDS011;3733;47.994;8.820;2022-09-21T19:19:46;9.10;;;4.80;;
7383;SDS011;3733;47.994;8.820;2022-09-21T19:27:42;4.20;;;2.60;;
7383;SDS011;3733;47.994;8.820;2022-09-21T19:30:16;5.40;;;3.33;;
7383;SDS011;3733;47.994;8.820;2022-09-21T19:35:26;3.77;;;2.00;;
7383;SDS011;3733;47.994;8.820;2022-09-21T19:37:55;2.43;;;2.10;;
7383;SDS011;3733;47.994;8.820;2022-09-21T19:40:23;2.57;;;2.37;;
7383;SDS011;3733;47.994;8.820;2022-09-21T19:48:16;4.37;;;2.80;;
7383;SDS011;3733;47.994;8.820;2022-09-21T19:50:46;9.23;;;3.17;;
7383;SDS011;3733;47.994;8.820;2022-09-21T19:53:12;3.00;;;2.53;;
7383;SDS011;3733;47.994;8.820;2022-09-21T19:55:57;7.90;;;2.37;;
7383;SDS011;3733;47.994;8.820;2022-09-21T19:58:44;7.60;;;2.60;;
7383;SDS011;3733;47.994;8.820;2022-09-21T20:01:28;3.97;;;2.50;;
7383;SDS011;3733;47.994;8.820;2022-09-21T20:03:57;5.87;;;3.03;;
7383;SDS011;3733;47.994;8.820;2022-09-21T20:06:29;3.37;;;2.70;;
7383;SDS011;3733;47.994;8.820;2022-09-21T20:09:25;3.87;;;3.07;;
7383;SDS011;3733;47.994;8.820;2022-09-21T20:12:04;4.20;;;3.50;;
7383;SDS011;3733;47.994;8.820;2022-09-21T20:17:31;9.10;;;5.90;;
7383;SDS011;3733;47.994;8.820;2022-09-21T20:22:51;6.03;;;3.50;;
7383;SDS011;3733;47.994;8.820;2022-09-21T20:25:20;4.73;;;3.30;;
7383;SDS011;3733;47.994;8.820;2022-09-21T20:27:48;2.90;;;2.50;;
7383;SDS011;3733;47.994;8.820;2022-09-21T20:30:20;3.93;;;2.90;;
7383;SDS011;3733;47.994;8.820;2022-09-21T20:32:48;6.27;;;3.40;;
7383;SDS011;3733;47.994;8.820;2022-09-21T20:35:19;7.43;;;2.77;;
7383;SDS011;3733;47.994;8.820;2022-09-21T20:37:46;3.77;;;2.80;;
7383;SDS011;3733;47.994;8.820;2022-09-21T20:40:12;6.70;;;3.90;;
7383;SDS011;3733;47.994;8.820;2022-09-21T20:42:38;4.60;;;3.37;;